Decoded Metar for FJDG (DIEGO GARCIA ISLAND in DIEGO GARCIA ISLAND) (IATA:N/A) | Meteo·Mobile Aviation Weather
aviador You're here:

FJDG Decoded Metar

DIEGO GARCIA ISLAND in DIEGO GARCIA ISLAND
Report Time2019-05-21 14:55:00
UTC Time2019-05-21 16:30:41
Flight Rules Old
Wind120° at 05 kt
W.Decomp.*RWY 13: 5.0 kt HW 0.2 kt LCW
Visibility9999 m
Phenomena:N/A
Clouds:Few 022 Hf
Scattered 080 Hf
Broken 240 Hf
Expected CloudBase > 800 ft AGL from Temp-Dew spread
Ceiling24,000 ft
Temp28°C (ISA +13)
Dew Point26°C (89% RH)
Heat Index33.6°C
QNH1012 hPa
Density Alt1,982 ft
Elevation10 ft
Report Wrong Elevation
Raw Report
FJDG 211455Z 12005KT 9999 FEW022 SCT080 BKN240 28/26 A2988 RMK
SLP115 8/132 T02810255 52017=

Extra information for FJDG:More info

Metar Taf Metar & Taf Last 4 Metars F.Rules Stats Wind Profile Meteogram Temp Stats Airport Information Weather charts Add Link Nearby VenuesMetar ALERT Operation Metar Decoded Social comments